Time;durP1;ratioP1;P1;durP2;ratioP2;P2;SDS_P1;SDS_P2;PMS_P1;PMS_P2;Temp;Humidity;BMP_temperature;BMP_pressure;BME280_temperature;BME280_humidity;BME280_pressure;Samples;Min_cycle;Max_cycle;Signal;HPM_P1;HPM_P2
2021/12/04 00:00:09;;;;;;;7.75;4.05;;;;;;;0.88;88.97;95778.69;4957578;28;20125;-64
2021/12/04 00:02:34;;;;;;;6.70;4.15;;;;;;;0.84;88.66;95778.56;4959922;28;20094;-62
2021/12/04 00:05:02;;;;;;;8.13;4.30;;;;;;;0.79;88.57;95761.78;4962274;28;20455;-61
2021/12/04 00:07:30;;;;;;;7.13;4.80;;;;;;;0.75;89.48;95772.44;4957226;28;20047;-62
2021/12/04 00:10:00;;;;;;;8.15;4.80;;;;;;;0.69;91.26;95774.53;4952436;28;20408;-62
2021/12/04 00:12:26;;;;;;;6.72;3.97;;;;;;;0.68;92.16;95770.25;4936722;28;20043;-62
2021/12/04 00:14:52;;;;;;;8.40;4.20;;;;;;;0.85;91.16;95763.19;4949317;28;20093;-63
2021/12/04 00:17:18;;;;;;;8.23;4.32;;;;;;;0.93;89.89;95760.44;4947857;28;20039;-62
2021/12/04 00:19:44;;;;;;;8.38;4.22;;;;;;;0.75;89.16;95751.66;4965116;28;20117;-63
2021/12/04 00:22:09;;;;;;;6.18;3.55;;;;;;;0.62;89.73;95751.91;4957581;28;20043;-63
2021/12/04 00:24:35;;;;;;;6.18;3.25;;;;;;;0.40;91.08;95737.59;4944594;28;20081;-62
2021/12/04 00:27:02;;;;;;;5.65;3.05;;;;;;;0.53;91.38;95743.88;4950730;28;20039;-62
2021/12/04 00:29:28;;;;;;;5.78;3.10;;;;;;;0.71;90.53;95744.56;4950405;28;20039;-60
2021/12/04 00:32:01;;;;;;;7.90;3.50;;;;;;;0.73;90.61;95735.03;4946659;28;20039;-61
2021/12/04 00:34:28;;;;;;;6.20;3.88;;;;;;;0.52;93.06;95740.41;4945281;28;20487;-61
2021/12/04 00:50:16;;;;;;;4.55;2.67;;;;;;;0.93;89.66;95727.28;4949259;28;20039;-62
2021/12/04 00:52:41;;;;;;;3.88;2.67;;;;;;;0.97;90.06;95712.03;4954931;28;20064;-62
2021/12/04 00:55:07;;;;;;;3.33;1.90;;;;;;;0.86;85.79;95713.53;4953339;28;20043;-60
2021/12/04 00:57:33;;;;;;;3.03;1.95;;;;;;;0.98;85.99;95713.63;4934717;28;20047;-62
2021/12/04 01:00:00;;;;;;;4.18;2.17;;;;;;;1.07;85.09;95695.47;4965780;28;20136;-62
2021/12/04 01:02:26;;;;;;;4.05;2.17;;;;;;;1.03;85.17;95696.47;4960513;28;20130;-62
2021/12/04 01:04:51;;;;;;;3.83;2.15;;;;;;;0.95;86.15;95693.50;4964910;28;20122;-62
2021/12/04 01:07:18;;;;;;;2.60;1.98;;;;;;;0.95;87.25;95693.50;4958924;28;20077;-61
2021/12/04 01:09:44;;;;;;;3.72;1.90;;;;;;;0.83;88.96;95698.81;4964631;28;20035;-62
2021/12/04 01:12:10;;;;;;;3.83;2.10;;;;;;;0.76;90.33;95695.88;4943120;28;20111;-62
2021/12/04 01:14:36;;;;;;;3.60;1.90;;;;;;;0.66;91.56;95702.41;4965082;28;20190;-61
2021/12/04 01:17:02;;;;;;;3.05;1.90;;;;;;;0.61;93.33;95697.22;4948266;28;20047;-62
2021/12/04 01:19:29;;;;;;;3.28;1.88;;;;;;;0.59;94.33;95696.75;4962190;28;20357;-62
2021/12/04 01:21:55;;;;;;;3.35;2.08;;;;;;;0.50;95.30;95702.19;4951365;28;20050;-59
2021/12/04 01:24:21;;;;;;;3.88;1.88;;;;;;;0.59;96.78;95695.97;4941226;28;20393;-63
2021/12/04 01:26:48;;;;;;;2.90;1.90;;;;;;;0.54;99.07;95691.53;4945735;28;20125;-61
2021/12/04 01:29:15;;;;;;;4.43;2.20;;;;;;;0.47;100.00;95694.78;4935799;28;20047;-61
2021/12/04 01:31:41;;;;;;;4.72;2.10;;;;;;;0.42;100.00;95683.41;4950040;28;20051;-61
2021/12/04 01:34:07;;;;;;;6.25;2.55;;;;;;;0.37;100.00;95685.16;4960669;28;20039;-62
2021/12/04 01:36:33;;;;;;;4.18;2.20;;;;;;;0.49;100.00;95678.28;4964578;28;20498;-61
2021/12/04 01:38:59;;;;;;;5.93;2.72;;;;;;;0.45;100.00;95680.84;4964094;28;20043;-62
2021/12/04 01:41:25;;;;;;;4.57;2.20;;;;;;;0.55;100.00;95674.28;4951874;28;20046;-61
2021/12/04 01:43:51;;;;;;;3.17;2.30;;;;;;;0.45;100.00;95659.28;4981091;28;20039;-62
2021/12/04 01:46:17;;;;;;;3.22;2.15;;;;;;;0.34;100.00;95661.56;4964585;28;20065;-60
2021/12/04 01:48:43;;;;;;;3.70;2.10;;;;;;;0.35;100.00;95659.66;4967981;28;20436;-61
2021/12/04 01:51:08;;;;;;;4.15;2.40;;;;;;;0.36;100.00;95662.03;4968741;28;20046;-60
2021/12/04 01:53:34;;;;;;;3.17;2.10;;;;;;;0.56;100.00;95654.31;4967293;28;20050;-61
2021/12/04 01:56:00;;;;;;;2.90;2.10;;;;;;;0.60;100.00;95649.84;4966190;28;20141;-61
2021/12/04 01:58:27;;;;;;;3.50;2.13;;;;;;;0.61;100.00;95640.63;4960577;28;20051;-60
2021/12/04 02:00:53;;;;;;;2.85;2.10;;;;;;;0.74;100.00;95638.81;4964770;28;20415;-61
2021/12/04 02:03:19;;;;;;;4.07;2.67;;;;;;;0.70;100.00;95629.78;4946005;28;20047;-61
2021/12/04 02:05:49;;;;;;;3.88;2.22;;;;;;;0.68;100.00;95630.09;4964927;28;20197;-62
2021/12/04 02:08:17;;;;;;;3.92;2.85;;;;;;;0.50;100.00;95632.13;4959263;28;20052;-58
2021/12/04 02:10:45;;;;;;;3.17;2.30;;;;;;;0.50;100.00;95620.56;4964023;28;20039;-61
2021/12/04 02:13:10;;;;;;;7.75;2.60;;;;;;;0.59;100.00;95623.22;4959148;28;20131;-60
2021/12/04 02:15:36;;;;;;;3.55;2.00;;;;;;;0.62;100.00;95617.97;4945440;28;20104;-62
2021/12/04 02:18:05;;;;;;;4.95;3.03;;;;;;;0.48;100.00;95610.13;4963554;28;20454;-60
2021/12/04 02:20:33;;;;;;;3.53;2.40;;;;;;;0.57;100.00;95608.16;4961616;28;20496;-60
2021/12/04 02:23:00;;;;;;;4.35;2.40;;;;;;;0.62;100.00;95609.09;4933465;28;20404;-61
2021/12/04 02:25:25;;;;;;;6.30;3.63;;;;;;;0.51;100.00;95601.41;4949277;28;20145;-60
2021/12/04 02:27:51;;;;;;;4.60;2.97;;;;;;;0.46;100.00;95593.50;4964483;28;20150;-62
2021/12/04 02:30:20;;;;;;;4.32;2.88;;;;;;;0.50;100.00;95591.72;4955177;28;20039;-62
2021/12/04 02:32:46;;;;;;;5.40;2.70;;;;;;;0.52;100.00;95596.78;4947745;28;20491;-63
2021/12/04 02:35:13;;;;;;;4.25;2.45;;;;;;;0.49;100.00;95598.25;4939995;28;20318;-63
2021/12/04 02:37:39;;;;;;;4.97;2.33;;;;;;;0.51;100.00;95590.63;4962955;28;20130;-61
2021/12/04 02:40:08;;;;;;;3.72;2.05;;;;;;;0.50;100.00;95583.63;4942111;28;20588;-60
2021/12/04 02:42:33;;;;;;;2.83;1.90;;;;;;;0.44;100.00;95574.19;4956420;28;20061;-61
2021/12/04 02:45:01;;;;;;;3.70;2.53;;;;;;;0.39;100.00;95579.78;4961847;28;20551;-62
2021/12/04 02:47:28;;;;;;;3.08;2.13;;;;;;;0.27;100.00;95571.63;4951737;28;20051;-63
2021/12/04 02:49:55;;;;;;;3.42;2.40;;;;;;;0.34;100.00;95563.78;4963230;28;20045;-63
2021/12/04 02:52:22;;;;;;;5.22;2.05;;;;;;;0.37;100.00;95561.22;4958507;28;20053;-63
2021/12/04 02:54:49;;;;;;;3.85;1.90;;;;;;;0.35;100.00;95562.69;4961967;28;20055;-63
2021/12/04 02:57:17;;;;;;;5.88;2.33;;;;;;;0.40;100.00;95559.81;4958192;28;20042;-63
2021/12/04 02:59:43;;;;;;;3.80;2.10;;;;;;;0.23;100.00;95543.75;4964196;28;20404;-62
2021/12/04 03:02:22;;;;;;;3.53;2.33;;;;;;;0.16;100.00;95547.78;4957180;28;20035;-63
2021/12/04 03:04:53;;;;;;;4.40;2.30;;;;;;;0.16;100.00;95542.41;4963727;28;20443;-63
2021/12/04 03:07:20;;;;;;;3.53;2.30;;;;;;;0.18;100.00;95537.47;4956288;28;20065;-62
2021/12/04 03:09:46;;;;;;;3.13;2.38;;;;;;;0.26;100.00;95535.81;4941273;28;20058;-63
2021/12/04 03:12:12;;;;;;;5.05;2.45;;;;;;;0.34;100.00;95534.16;4957920;28;20043;-62
2021/12/04 03:14:38;;;;;;;5.78;2.35;;;;;;;0.32;100.00;95522.94;4963550;28;20480;-62
2021/12/04 03:17:05;;;;;;;4.07;2.22;;;;;;;0.32;100.00;95528.31;4960002;28;20344;-62
2021/12/04 03:19:31;;;;;;;6.93;2.38;;;;;;;0.25;100.00;95520.75;4977025;28;20047;-62
2021/12/04 03:21:56;;;;;;;5.00;2.30;;;;;;;0.24;100.00;95510.34;4945526;28;20046;-62
2021/12/04 03:24:24;;;;;;;6.22;2.35;;;;;;;0.18;100.00;95509.72;4957192;28;20841;-61
2021/12/04 03:26:51;;;;;;;5.18;2.30;;;;;;;0.14;100.00;95506.13;4962719;28;20047;-57
2021/12/04 03:29:20;;;;;;;3.83;2.60;;;;;;;-0.27;100.00;95499.59;4960991;28;20038;-60
2021/12/04 03:42:39;;;;;;;6.18;3.13;;;;;;;-0.16;100.00;95490.03;4962504;28;20046;-64
2021/12/04 03:45:08;;;;;;;5.85;3.30;;;;;;;-0.29;100.00;95483.78;4957502;28;20474;-64
2021/12/04 03:47:34;;;;;;;5.38;2.88;;;;;;;-0.27;100.00;95484.25;4962295;28;20043;-63
2021/12/04 03:49:59;;;;;;;5.22;3.30;;;;;;;0.02;100.00;95474.56;4963278;28;20150;-62
2021/12/04 03:52:25;;;;;;;5.10;3.08;;;;;;;0.09;100.00;95485.59;4959272;28;20046;-63
2021/12/04 03:54:50;;;;;;;4.65;3.15;;;;;;;0.23;100.00;95477.22;4943957;28;20035;-63
2021/12/04 03:57:16;;;;;;;5.47;2.95;;;;;;;0.29;100.00;95483.19;4958896;28;20377;-61
2021/12/04 03:59:45;;;;;;;5.72;3.38;;;;;;;0.30;100.00;95474.00;4963296;28;20066;-62
2021/12/04 04:02:13;;;;;;;4.72;3.30;;;;;;;0.31;100.00;95462.13;4957743;28;20045;-61
2021/12/04 04:04:39;;;;;;;4.55;2.90;;;;;;;0.22;100.00;95470.28;4961210;28;20047;-64
2021/12/04 04:07:05;;;;;;;5.47;3.15;;;;;;;0.21;100.00;95457.91;4957454;28;20058;-62
2021/12/04 04:09:31;;;;;;;7.32;3.67;;;;;;;0.11;100.00;95455.63;4960601;28;20821;-61
2021/12/04 04:11:57;;;;;;;4.32;3.40;;;;;;;0.04;100.00;95447.28;4961227;28;20051;-61
2021/12/04 04:14:23;;;;;;;7.40;3.72;;;;;;;-0.01;100.00;95440.22;4956867;28;20213;-63
2021/12/04 04:16:49;;;;;;;4.57;2.83;;;;;;;0.03;100.00;95443.81;4961473;28;20050;-63
2021/12/04 04:19:15;;;;;;;5.20;3.28;;;;;;;-0.05;100.00;95431.22;4938518;28;20043;-63
2021/12/04 04:21:41;;;;;;;5.68;3.35;;;;;;;0.03;100.00;95437.66;4959953;28;20400;-63
2021/12/04 04:24:12;;;;;;;5.50;3.90;;;;;;;0.13;100.00;95437.25;4956825;28;20360;-61
2021/12/04 04:26:39;;;;;;;4.88;3.40;;;;;;;0.26;100.00;95440.78;4961048;28;20077;-62
2021/12/04 04:29:06;;;;;;;6.30;3.70;;;;;;;0.26;100.00;95433.47;4957395;28;20139;-62
2021/12/04 04:31:33;;;;;;;6.82;3.13;;;;;;;0.27;100.00;95439.66;4962475;28;20046;-62
2021/12/04 04:34:08;;;;;;;4.35;3.33;;;;;;;0.33;100.00;95441.03;4972513;28;20046;-63
2021/12/04 05:01:21;;;;;;;7.55;4.05;;;;;;;-0.32;100.00;95397.56;4924271;28;20400;-61
2021/12/04 05:14:34;;;;;;;6.43;4.25;;;;;;;0.11;100.00;95382.94;4960881;28;20043;-61
2021/12/04 05:17:13;;;;;;;6.47;4.30;;;;;;;0.07;100.00;95377.41;4955679;28;20046;-62
2021/12/04 05:22:09;;;;;;;7.22;4.78;;;;;;;-0.30;100.00;95371.88;4941716;28;20528;-61
2021/12/04 05:24:35;;;;;;;7.35;4.28;;;;;;;-0.22;100.00;95362.97;4958845;28;20420;-61
2021/12/04 05:27:01;;;;;;;6.20;4.57;;;;;;;-0.14;100.00;95368.63;4957872;28;20047;-61
2021/12/04 05:29:27;;;;;;;7.05;4.80;;;;;;;-0.29;100.00;95356.53;4956253;28;20043;-60
2021/12/04 05:31:53;;;;;;;6.80;4.97;;;;;;;-0.54;100.00;95347.53;4955953;28;20046;-62
2021/12/04 05:34:18;;;;;;;7.55;5.13;;;;;;;-0.60;100.00;95333.50;4958719;28;20050;-61
2021/12/04 05:36:44;;;;;;;9.57;6.05;;;;;;;-0.53;100.00;95331.09;4965489;28;20129;-63
2021/12/04 05:39:10;;;;;;;10.18;6.30;;;;;;;-0.63;100.00;95329.59;4960795;28;20042;-61
2021/12/04 05:41:36;;;;;;;9.98;6.60;;;;;;;-0.57;100.00;95343.63;4968026;28;20105;-62
2021/12/04 05:44:06;;;;;;;10.88;6.18;;;;;;;-0.49;100.00;95336.59;4965483;28;20444;-63
2021/12/04 05:46:42;;;;;;;10.00;6.43;;;;;;;-0.56;100.00;95339.81;4961030;28;20409;-62
2021/12/04 05:49:18;;;;;;;11.80;7.53;;;;;;;-0.58;100.00;95333.97;4960030;28;20095;-63
2021/12/04 05:52:04;;;;;;;10.88;7.20;;;;;;;-0.38;100.00;95337.75;4965007;28;20093;-62
2021/12/04 05:57:06;;;;;;;12.23;7.22;;;;;;;-0.07;100.00;95344.63;4959035;28;20046;-64
2021/12/04 05:59:32;;;;;;;12.10;7.20;;;;;;;0.10;100.00;95340.97;4961554;28;20039;-62
2021/12/04 06:01:58;;;;;;;10.63;6.85;;;;;;;0.12;100.00;95344.91;4957806;28;20381;-63
2021/12/04 06:04:24;;;;;;;10.23;6.85;;;;;;;0.03;100.00;95343.44;4960012;28;20058;-63
2021/12/04 06:06:49;;;;;;;11.60;6.63;;;;;;;0.10;100.00;95349.84;4964220;28;20050;-62
2021/12/04 06:09:15;;;;;;;10.85;6.72;;;;;;;0.19;100.00;95350.53;4957311;28;20043;-64
2021/12/04 06:11:40;;;;;;;9.63;6.47;;;;;;;0.29;100.00;95341.25;4963804;28;20042;-64
2021/12/04 06:14:06;;;;;;;9.88;6.75;;;;;;;0.35;100.00;95348.00;4959502;28;20078;-63
2021/12/04 06:16:32;;;;;;;14.45;6.80;;;;;;;0.42;100.00;95352.06;4966482;28;20121;-64
2021/12/04 06:19:05;;;;;;;10.80;6.93;;;;;;;0.46;100.00;95347.56;4975608;28;20424;-63
2021/12/04 06:24:14;;;;;;;10.32;7.18;;;;;;;0.30;100.00;95339.34;4956990;28;20067;-63
2021/12/04 06:26:40;;;;;;;11.98;7.60;;;;;;;0.21;100.00;95338.66;4957160;28;20043;-62
2021/12/04 06:29:05;;;;;;;12.27;7.82;;;;;;;0.06;100.00;95335.47;4956951;28;20491;-62
2021/12/04 06:31:32;;;;;;;17.35;8.23;;;;;;;0.19;100.00;95339.75;4959961;28;20113;-61
2021/12/04 06:33:58;;;;;;;11.68;8.10;;;;;;;0.18;100.00;95335.50;4947036;28;20043;-62
2021/12/04 06:36:25;;;;;;;15.57;8.93;;;;;;;-0.14;100.00;95325.56;4958741;28;20269;-62
2021/12/04 06:38:51;;;;;;;14.70;8.82;;;;;;;0.05;100.00;95339.28;4964582;28;20042;-63
2021/12/04 06:41:17;;;;;;;16.33;9.68;;;;;;;0.06;100.00;95335.47;4953117;28;20134;-61
2021/12/04 06:43:47;;;;;;;16.25;9.75;;;;;;;0.11;100.00;95334.47;4960995;28;20139;-63
2021/12/04 06:46:13;;;;;;;16.42;10.10;;;;;;;0.27;100.00;95331.91;4948503;28;20090;-64
2021/12/04 06:51:13;;;;;;;19.77;9.68;;;;;;;0.41;100.00;95329.72;4945266;28;20086;-61
2021/12/04 06:53:43;;;;;;;14.95;9.40;;;;;;;0.49;100.00;95336.13;4965492;28;20118;-62
2021/12/04 06:56:11;;;;;;;15.25;9.40;;;;;;;0.56;100.00;95328.28;4957588;28;20046;-62
2021/12/04 06:58:37;;;;;;;19.65;10.27;;;;;;;0.59;100.00;95321.44;4964368;28;20047;-61
2021/12/04 07:01:06;;;;;;;22.92;12.68;;;;;;;0.71;100.00;95321.44;4960658;28;20054;-61
2021/12/04 07:03:32;;;;;;;26.07;13.50;;;;;;;0.91;100.00;95317.84;4962876;28;20592;-62
2021/12/04 07:05:57;;;;;;;19.30;10.88;;;;;;;0.76;100.00;95313.91;4961906;28;20046;-62
2021/12/04 07:08:23;;;;;;;18.42;9.65;;;;;;;0.73;100.00;95311.88;4957802;28;20057;-61
2021/12/04 07:10:48;;;;;;;15.90;10.70;;;;;;;0.43;100.00;95310.53;4945976;28;20373;-62
2021/12/04 07:13:14;;;;;;;18.35;10.95;;;;;;;0.51;100.00;95313.13;4941372;28;20624;-62
2021/12/04 07:15:43;;;;;;;17.75;10.65;;;;;;;0.69;100.00;95315.59;4963878;28;20046;-61
2021/12/04 07:18:09;;;;;;;34.95;16.70;;;;;;;0.71;100.00;95307.97;4956708;28;20472;-60
2021/12/04 07:20:34;;;;;;;28.70;12.95;;;;;;;0.69;100.00;95304.81;4957793;28;20055;-60
2021/12/04 07:23:00;;;;;;;39.08;17.98;;;;;;;0.82;100.00;95309.06;4945699;28;20094;-59
2021/12/04 07:25:26;;;;;;;51.25;23.15;;;;;;;0.99;100.00;95307.28;4938605;28;20058;-59
2021/12/04 07:27:51;;;;;;;27.85;14.95;;;;;;;1.10;100.00;95311.88;4943422;28;20043;-60
2021/12/04 07:30:18;;;;;;;24.70;14.07;;;;;;;1.25;100.00;95315.00;4938463;28;20048;-60
2021/12/04 07:32:44;;;;;;;29.45;15.82;;;;;;;1.25;100.00;95323.09;4944525;28;20067;-61
2021/12/04 07:35:10;;;;;;;21.73;12.50;;;;;;;1.21;100.00;95327.59;4937918;28;20085;-62
2021/12/04 07:37:36;;;;;;;20.40;11.70;;;;;;;1.26;100.00;95319.25;4962059;28;20134;-61
2021/12/04 07:40:02;;;;;;;48.08;25.13;;;;;;;1.23;100.00;95334.22;4960638;28;20039;-60
2021/12/04 07:42:27;;;;;;;61.88;25.70;;;;;;;1.03;100.00;95324.34;4960872;28;20098;-59
2021/12/04 07:44:53;;;;;;;25.48;14.60;;;;;;;0.70;100.00;95325.25;4963683;28;20051;-63
2021/12/04 07:47:18;;;;;;;21.13;11.35;;;;;;;0.61;100.00;95313.78;4962727;28;20062;-61
2021/12/04 07:49:44;;;;;;;17.15;10.35;;;;;;;0.64;100.00;95322.00;4957839;28;20043;-62
2021/12/04 07:52:10;;;;;;;23.92;12.40;;;;;;;0.71;100.00;95326.84;4947662;28;20054;-63
2021/12/04 07:54:36;;;;;;;29.27;17.17;;;;;;;0.79;100.00;95319.75;4962751;28;20050;-63
2021/12/04 07:57:03;;;;;;;28.17;17.98;;;;;;;0.98;100.00;95313.81;4961728;28;20043;-63
2021/12/04 07:59:29;;;;;;;21.88;12.57;;;;;;;0.75;100.00;95315.03;4955991;28;20054;-61
2021/12/04 08:01:56;;;;;;;19.83;11.38;;;;;;;0.92;100.00;95324.81;4958955;28;20046;-63
2021/12/04 08:04:23;;;;;;;18.13;11.30;;;;;;;0.92;100.00;95314.03;4955513;28;21116;-64
2021/12/04 08:06:48;;;;;;;17.63;9.85;;;;;;;0.93;100.00;95312.09;4962471;28;20130;-62
2021/12/04 08:09:13;;;;;;;19.23;10.68;;;;;;;0.91;100.00;95307.03;4957702;28;20133;-63
2021/12/04 08:11:39;;;;;;;21.00;10.88;;;;;;;0.74;100.00;95297.28;4963048;28;20046;-63
2021/12/04 08:14:04;;;;;;;24.73;11.30;;;;;;;0.94;100.00;95301.00;4956606;28;20129;-62
2021/12/04 08:16:33;;;;;;;22.33;11.98;;;;;;;0.97;100.00;95306.81;4970080;28;20054;-63
2021/12/04 08:18:58;;;;;;;25.95;12.05;;;;;;;0.82;100.00;95300.22;4964458;28;20046;-65
2021/12/04 08:21:25;;;;;;;17.77;10.55;;;;;;;0.77;100.00;95306.59;4957875;28;20505;-64
2021/12/04 08:23:51;;;;;;;19.88;10.15;;;;;;;0.67;100.00;95302.47;4946121;28;20105;-62
2021/12/04 08:26:17;;;;;;;17.48;10.10;;;;;;;0.60;100.00;95312.22;4957205;28;20106;-64
2021/12/04 08:28:43;;;;;;;20.80;11.35;;;;;;;0.49;100.00;95290.34;4961742;28;20038;-63
2021/12/04 08:31:09;;;;;;;22.98;13.70;;;;;;;0.56;100.00;95306.72;4957273;28;20046;-62
2021/12/04 08:33:34;;;;;;;26.08;13.13;;;;;;;0.45;100.00;95301.00;4962524;28;20051;-61
2021/12/04 08:36:01;;;;;;;24.25;13.02;;;;;;;0.56;100.00;95301.34;4961866;28;20066;-65
2021/12/04 08:38:27;;;;;;;32.67;17.80;;;;;;;0.52;100.00;95295.03;4957971;28;20042;-63
2021/12/04 08:40:53;;;;;;;29.67;15.50;;;;;;;0.65;100.00;95298.50;4961038;28;20357;-61
2021/12/04 08:43:19;;;;;;;26.65;14.07;;;;;;;0.75;100.00;95284.59;4945248;28;20057;-63
2021/12/04 08:45:45;;;;;;;21.85;12.52;;;;;;;0.82;100.00;95297.53;4956646;28;20046;-64
2021/12/04 08:48:11;;;;;;;21.80;12.75;;;;;;;0.88;100.00;95294.25;4956926;28;20125;-63
2021/12/04 08:50:38;;;;;;;22.98;11.75;;;;;;;0.91;100.00;95287.41;4959652;28;20491;-61
2021/12/04 08:53:04;;;;;;;26.27;14.13;;;;;;;0.91;100.00;95288.19;4960116;28;20389;-63
2021/12/04 08:55:32;;;;;;;27.40;15.38;;;;;;;0.92;100.00;95286.28;4961262;28;20484;-58
2021/12/04 08:57:58;;;;;;;39.53;19.13;;;;;;;0.94;100.00;95282.13;4958556;28;20042;-56
2021/12/04 09:00:30;;;;;;;30.27;15.52;;;;;;;1.21;100.00;95276.34;4954651;28;20915;-57
2021/12/04 09:02:56;;;;;;;23.38;14.05;;;;;;;1.23;100.00;95274.88;4961572;28;20035;-59
2021/12/04 09:05:23;;;;;;;23.15;13.15;;;;;;;1.24;100.00;95289.13;4952682;28;20164;-61
2021/12/04 09:07:50;;;;;;;25.25;14.48;;;;;;;1.31;100.00;95275.84;4947919;28;20045;-57
2021/12/04 09:10:17;;;;;;;22.30;12.93;;;;;;;1.46;100.00;95275.16;4942751;28;20466;-58
2021/12/04 09:12:43;;;;;;;21.55;12.27;;;;;;;1.40;100.00;95278.41;4965081;28;20393;-60
2021/12/04 09:15:13;;;;;;;69.45;38.00;;;;;;;1.07;100.00;95268.63;4949606;28;20058;-58
2021/12/04 09:17:39;;;;;;;48.95;25.83;;;;;;;1.00;100.00;95271.09;4968215;28;20035;-59
2021/12/04 09:20:07;;;;;;;204.77;111.45;;;;;;;0.88;100.00;95264.63;4955064;28;20074;-63
2021/12/04 09:22:35;;;;;;;109.70;61.35;;;;;;;0.80;100.00;95265.50;4967375;28;20045;-58
2021/12/04 09:25:16;;;;;;;144.32;78.80;;;;;;;0.83;100.00;95270.22;4966381;28;20061;-56
2021/12/04 10:04:59;;;;;;;17.73;10.15;;;;;;;1.59;100.00;95215.75;4953986;28;20456;-59
2021/12/04 10:32:36;;;;;;;20.48;10.50;;;;;;;2.41;100.00;95168.38;4940140;29;20162;-60
2021/12/04 10:35:07;;;;;;;25.40;18.88;;;;;;;2.40;100.00;95166.81;4948622;28;20050;-62
2021/12/04 10:37:34;;;;;;;18.00;11.57;;;;;;;2.64;100.00;95160.41;4965597;28;20043;-58
2021/12/04 10:40:07;;;;;;;25.85;15.68;;;;;;;2.74;100.00;95153.63;4964228;28;20468;-57
2021/12/04 10:42:47;;;;;;;14.40;9.77;;;;;;;2.66;100.00;95148.06;4961140;28;20484;-61
2021/12/04 10:45:12;;;;;;;15.85;9.88;;;;;;;2.75;100.00;95137.06;4958192;28;20101;-62
2021/12/04 10:47:50;;;;;;;12.95;8.05;;;;;;;2.84;100.00;95124.13;4946182;28;20038;-61
2021/12/04 10:50:39;;;;;;;10.50;7.00;;;;;;;2.81;100.00;95126.75;4959225;28;20042;-62
2021/12/04 10:53:11;;;;;;;13.13;8.38;;;;;;;2.91;100.00;95122.72;4959025;28;20116;-62
2021/12/04 11:21:05;;;;;;;31.40;17.15;;;;;;;4.17;100.00;95115.66;4955246;28;20365;-60
2021/12/04 11:24:18;;;;;;;22.15;13.07;;;;;;;4.29;100.00;95105.78;4955510;28;20051;-59
2021/12/04 11:40:11;;;;;;;25.25;15.93;;;;;;;4.20;100.00;95093.28;4962821;28;20043;-60
2021/12/04 11:42:52;;;;;;;28.67;17.67;;;;;;;4.17;100.00;95095.94;4962425;28;20487;-59
2021/12/04 11:45:23;;;;;;;19.40;13.93;;;;;;;4.18;100.00;95097.50;4957704;28;20499;-58
2021/12/04 11:47:57;;;;;;;23.35;14.27;;;;;;;4.45;100.00;95094.78;4930193;28;20043;-62
2021/12/04 11:50:37;;;;;;;24.77;14.65;;;;;;;4.61;100.00;95092.69;4955418;28;20900;-59
2021/12/04 11:53:16;;;;;;;22.88;12.90;;;;;;;4.55;100.00;95091.44;4959579;28;20640;-62
2021/12/04 11:55:45;;;;;;;11.15;8.15;;;;;;;4.51;100.00;95079.75;4963084;28;20074;-63
2021/12/04 11:58:32;;;;;;;11.02;7.57;;;;;;;4.66;100.00;95070.66;4957580;28;20062;-64
2021/12/04 12:01:01;;;;;;;17.48;11.90;;;;;;;4.31;100.00;95069.03;4962329;28;20043;-64
2021/12/04 12:03:36;;;;;;;12.68;8.98;;;;;;;4.28;100.00;95077.13;4958827;28;20053;-63
2021/12/04 12:06:10;;;;;;;17.92;11.48;;;;;;;4.35;100.00;95078.00;4956662;28;20507;-63
2021/12/04 12:08:42;;;;;;;23.23;13.55;;;;;;;4.12;100.00;95063.72;4962423;28;20058;-65
2021/12/04 12:11:27;;;;;;;18.67;11.10;;;;;;;4.07;100.00;95070.25;4958898;28;20101;-65
2021/12/04 12:14:11;;;;;;;17.38;10.07;;;;;;;4.13;100.00;95059.88;4962843;28;20045;-62
2021/12/04 12:16:45;;;;;;;16.48;9.63;;;;;;;3.92;100.00;95073.88;4952986;28;20055;-64
2021/12/04 12:19:26;;;;;;;15.40;9.00;;;;;;;3.73;100.00;95072.03;4958369;28;20443;-62
2021/12/04 12:21:58;;;;;;;14.45;9.82;;;;;;;3.75;100.00;95067.81;4967650;28;20101;-63
2021/12/04 12:33:22;;;;;;;12.38;6.07;;;;;;;4.14;100.00;95059.50;4956795;28;20045;-65
2021/12/04 12:36:03;;;;;;;14.20;8.80;;;;;;;4.25;100.00;95058.88;4957444;28;20049;-64
2021/12/04 12:38:44;;;;;;;13.10;7.60;;;;;;;4.17;100.00;95047.94;4943696;28;20661;-64
2021/12/04 12:41:37;;;;;;;15.48;7.70;;;;;;;4.07;100.00;95047.78;4956626;28;20058;-62
2021/12/04 12:44:25;;;;;;;18.90;9.50;;;;;;;4.04;100.00;95043.09;4964816;28;20054;-65
2021/12/04 12:46:53;;;;;;;15.55;7.15;;;;;;;4.00;100.00;95035.69;4967528;28;20441;-64
2021/12/04 12:49:29;;;;;;;16.35;9.40;;;;;;;4.04;100.00;95030.31;4961903;28;20049;-66
2021/12/04 12:52:03;;;;;;;16.98;8.10;;;;;;;3.97;100.00;95032.94;4966631;28;20122;-62
2021/12/04 12:54:34;;;;;;;36.50;17.33;;;;;;;3.91;100.00;95028.97;4962231;28;20051;-64
2021/12/04 12:57:04;;;;;;;9.95;5.60;;;;;;;4.22;100.00;95028.66;4965774;28;20050;-62
2021/12/04 13:14:14;;;;;;;7.07;2.72;;;;;;;4.98;100.00;95035.00;4961950;28;20561;-65
2021/12/04 13:16:43;;;;;;;5.28;2.40;;;;;;;5.01;100.00;95036.22;4965031;28;20070;-62
2021/12/04 13:19:13;;;;;;;3.58;2.20;;;;;;;5.12;100.00;95035.16;4960128;28;20047;-62
2021/12/04 13:21:43;;;;;;;4.22;2.25;;;;;;;5.15;100.00;95037.13;4953426;28;20480;-62
2021/12/04 13:24:11;;;;;;;3.78;2.35;;;;;;;5.31;100.00;95042.34;4951076;28;20054;-64
2021/12/04 13:26:40;;;;;;;4.28;2.00;;;;;;;5.47;100.00;95035.88;4944815;29;20035;-61
2021/12/04 13:29:07;;;;;;;3.53;2.63;;;;;;;5.47;100.00;95035.88;4941797;28;20122;-62
2021/12/04 13:31:37;;;;;;;5.05;2.55;;;;;;;5.52;100.00;95014.59;4964641;28;20043;-63
2021/12/04 13:34:04;;;;;;;2.60;1.73;;;;;;;5.44;100.00;95017.59;4963469;28;20039;-64
2021/12/04 13:36:30;;;;;;;2.20;1.38;;;;;;;5.58;100.00;95025.09;4965356;28;20053;-61
2021/12/04 13:39:03;;;;;;;2.03;1.25;;;;;;;5.57;100.00;95018.91;4963280;28;20043;-60
2021/12/04 13:41:30;;;;;;;1.50;1.00;;;;;;;5.57;100.00;95024.34;4955696;28;20105;-62
2021/12/04 13:43:59;;;;;;;3.78;1.30;;;;;;;5.61;100.00;95018.94;4965555;28;20043;-62
2021/12/04 13:46:25;;;;;;;1.88;1.20;;;;;;;5.53;100.00;95020.81;4969007;28;20518;-63
2021/12/04 13:48:58;;;;;;;2.20;1.55;;;;;;;5.45;100.00;95028.09;4972489;28;20057;-63
2021/12/04 13:51:23;;;;;;;2.03;1.40;;;;;;;5.50;100.00;95021.56;4960154;28;20050;-61
2021/12/04 13:53:49;;;;;;;2.15;1.33;;;;;;;5.61;100.00;95014.28;4962916;28;20046;-61
2021/12/04 13:56:18;;;;;;;2.88;1.50;;;;;;;5.71;100.00;95020.97;4944576;28;20055;-59
2021/12/04 13:58:59;;;;;;;6.35;2.53;;;;;;;5.80;100.00;95031.50;4965750;28;20077;-61
2021/12/04 14:01:27;;;;;;;3.97;2.15;;;;;;;5.61;100.00;95033.28;4962410;28;20054;-60
2021/12/04 14:03:59;;;;;;;4.05;3.08;;;;;;;5.49;100.00;95047.13;4968676;28;20043;-60
2021/12/04 14:06:25;;;;;;;3.30;2.40;;;;;;;5.46;100.00;95039.75;4959165;28;20175;-60
2021/12/04 14:09:01;;;;;;;3.22;2.40;;;;;;;5.58;100.00;95047.59;4961017;28;20054;-60
2021/12/04 14:11:30;;;;;;;4.55;2.83;;;;;;;5.53;100.00;95051.47;4951024;28;20066;-58
2021/12/04 14:13:55;;;;;;;5.28;2.95;;;;;;;5.52;100.00;95060.75;4965345;28;20145;-58
2021/12/04 14:16:25;;;;;;;6.68;3.20;;;;;;;5.41;100.00;95053.69;4959814;28;20137;-60
2021/12/04 14:18:51;;;;;;;5.50;3.15;;;;;;;5.56;100.00;95049.91;4961599;28;20035;-62
2021/12/04 14:21:17;;;;;;;4.75;3.00;;;;;;;5.68;100.00;95054.31;4962000;28;20043;-62
2021/12/04 14:23:47;;;;;;;5.50;3.80;;;;;;;5.70;100.00;95055.47;4965617;28;20051;-60
2021/12/04 14:26:15;;;;;;;7.38;4.10;;;;;;;5.60;100.00;95053.47;4950604;28;20053;-61
2021/12/04 14:28:43;;;;;;;4.55;2.97;;;;;;;5.63;100.00;95049.97;4964327;28;20547;-61
2021/12/04 14:31:12;;;;;;;4.90;2.95;;;;;;;5.58;100.00;95047.59;4959203;28;20058;-63
2021/12/04 14:33:40;;;;;;;4.60;2.67;;;;;;;5.57;100.00;95040.63;4969778;28;20431;-63
2021/12/04 14:36:06;;;;;;;4.15;2.30;;;;;;;5.68;100.00;95033.34;4961205;28;20043;-61
2021/12/04 14:38:32;;;;;;;3.45;2.42;;;;;;;5.67;100.00;95015.50;4965776;28;20043;-60
2021/12/04 14:41:06;;;;;;;4.40;2.58;;;;;;;5.69;100.00;95023.25;4964786;28;20051;-60
2021/12/04 14:43:35;;;;;;;4.57;3.00;;;;;;;5.61;100.00;95032.50;4964017;28;20050;-60
2021/12/04 14:46:04;;;;;;;4.83;2.83;;;;;;;5.57;100.00;95034.44;4963470;28;20039;-59